Time;durP1;ratioP1;P1;durP2;ratioP2;P2;SDS_P1;SDS_P2;PMS_P1;PMS_P2;Temp;Humidity;BMP_temperature;BMP_pressure;BME280_temperature;BME280_humidity;BME280_pressure;Samples;Min_cycle;Max_cycle;Signal;HPM_P1;HPM_P2
2024/02/06 00:01:14;;;;;;;;;;;8.60;99.90;;;;;;4959421;28;19914;-74
2024/02/06 00:03:40;;;;;;;;;;;8.60;99.90;;;;;;4960593;28;20287;-74
2024/02/06 00:06:06;;;;;;;;;;;8.50;99.90;;;;;;4975403;28;19918;-74
2024/02/06 00:08:31;;;;;;;;;;;8.50;99.90;;;;;;4959150;28;19946;-74
2024/02/06 00:11:00;;;;;;;;;;;8.40;99.90;;;;;;4990889;28;19918;-74
2024/02/06 00:13:25;;;;;;;;;;;8.40;99.90;;;;;;4975028;28;19918;-74
2024/02/06 00:15:51;;;;;;;;;;;8.40;99.90;;;;;;4953542;29;19989;-74
2024/02/06 00:18:16;;;;;;;;;;;8.50;99.90;;;;;;4964322;28;19921;-74
2024/02/06 00:20:42;;;;;;;;;;;8.40;99.90;;;;;;4975749;28;19914;-73
2024/02/06 00:23:08;;;;;;;;;;;8.40;99.90;;;;;;4975892;28;20643;-74
2024/02/06 00:25:33;;;;;;;;;;;8.30;99.90;;;;;;4972697;28;20307;-74
2024/02/06 00:27:59;;;;;;;;;;;8.40;99.90;;;;;;4973198;28;20216;-74
2024/02/06 00:30:27;;;;;;;;;;;8.40;99.90;;;;;;4958240;28;20222;-74
2024/02/06 00:32:53;;;;;;;;;;;8.40;99.90;;;;;;4990375;28;19925;-74
2024/02/06 00:35:18;;;;;;;;;;;8.40;99.90;;;;;;4940717;28;19918;-74
2024/02/06 00:37:44;;;;;;;;;;;8.40;99.90;;;;;;4956026;29;20239;-74
2024/02/06 00:40:10;;;;;;;;;;;8.40;99.90;;;;;;4956177;28;19953;-74
2024/02/06 00:42:36;;;;;;;;;;;8.40;99.90;;;;;;4975649;28;19918;-73
2024/02/06 00:45:02;;;;;;;;;;;8.40;99.90;;;;;;4958673;28;19925;-74
2024/02/06 00:47:27;;;;;;;;;;;8.40;99.90;;;;;;4991332;28;19965;-75
2024/02/06 00:49:53;;;;;;;;;;;8.40;99.90;;;;;;4974659;28;19952;-73
2024/02/06 00:52:18;;;;;;;;;;;8.40;99.90;;;;;;4991127;28;20013;-73
2024/02/06 00:54:44;;;;;;;;;;;8.40;99.90;;;;;;4974770;28;19918;-74
2024/02/06 00:57:10;;;;;;;;;;;8.40;99.90;;;;;;4974799;28;19925;-74
2024/02/06 00:59:35;;;;;;;;;;;8.40;99.90;;;;;;4992917;28;20383;-74
2024/02/06 01:02:01;;;;;;;;;;;8.40;99.90;;;;;;4974959;28;19918;-74
2024/02/06 01:04:27;;;;;;;;;;;8.40;99.90;;;;;;4991287;28;19918;-73
2024/02/06 01:06:52;;;;;;;;;;;8.30;99.90;;;;;;4974939;28;20597;-73
2024/02/06 01:09:18;;;;;;;;;;;8.40;99.90;;;;;;4958264;28;20584;-73
2024/02/06 01:11:44;;;;;;;;;;;8.30;99.90;;;;;;4972054;28;20670;-75
2024/02/06 01:14:09;;;;;;;;;;;8.30;99.90;;;;;;4977827;28;19922;-75
2024/02/06 01:16:35;;;;;;;;;;;8.30;99.90;;;;;;4968479;28;19918;-73
2024/02/06 01:19:01;;;;;;;;;;;8.30;99.90;;;;;;4974742;28;20318;-73
2024/02/06 01:21:27;;;;;;;;;;;8.40;99.90;;;;;;4980582;28;20250;-75
2024/02/06 01:23:52;;;;;;;;;;;8.40;99.90;;;;;;4956282;28;20069;-75
2024/02/06 01:26:21;;;;;;;;;;;8.30;99.90;;;;;;4972650;28;19922;-75
2024/02/06 01:28:47;;;;;;;;;;;8.30;99.90;;;;;;4969094;28;19918;-75
2024/02/06 01:31:12;;;;;;;;;;;8.30;99.90;;;;;;4986967;28;19933;-75
2024/02/06 01:33:38;;;;;;;;;;;8.30;99.90;;;;;;4989742;28;19922;-75
2024/02/06 01:36:04;;;;;;;;;;;8.20;99.90;;;;;;4973720;28;20662;-74
2024/02/06 01:38:29;;;;;;;;;;;8.20;99.90;;;;;;4973604;28;19925;-75
2024/02/06 01:40:55;;;;;;;;;;;8.30;99.90;;;;;;4940236;28;19919;-75
2024/02/06 01:43:21;;;;;;;;;;;8.20;99.90;;;;;;4963282;28;19914;-76
2024/02/06 01:45:46;;;;;;;;;;;8.20;99.90;;;;;;4990304;28;20346;-75
2024/02/06 01:48:12;;;;;;;;;;;8.20;99.90;;;;;;4987255;28;19926;-73
2024/02/06 01:50:40;;;;;;;;;;;8.30;99.90;;;;;;4974434;28;20334;-74
2024/02/06 01:53:06;;;;;;;;;;;8.20;99.90;;;;;;4963986;28;20010;-74
2024/02/06 01:55:31;;;;;;;;;;;8.20;99.90;;;;;;4970152;28;19925;-74
2024/02/06 01:57:57;;;;;;;;;;;8.20;99.90;;;;;;4978863;28;19965;-74
2024/02/06 02:00:24;;;;;;;;;;;8.20;99.90;;;;;;4993469;28;19913;-74
2024/02/06 02:02:50;;;;;;;;;;;8.20;99.90;;;;;;4991363;28;19918;-74
2024/02/06 02:05:17;;;;;;;;;;;8.20;99.90;;;;;;4981508;28;20005;-74
2024/02/06 02:07:43;;;;;;;;;;;8.20;99.90;;;;;;4977996;28;19922;-74
2024/02/06 02:10:09;;;;;;;;;;;8.20;99.90;;;;;;4977562;28;19922;-74
2024/02/06 02:12:35;;;;;;;;;;;8.20;99.90;;;;;;4967900;28;19938;-74
2024/02/06 02:15:02;;;;;;;;;;;8.30;99.90;;;;;;4972464;28;19937;-74
2024/02/06 02:17:27;;;;;;;;;;;8.30;99.90;;;;;;4977690;28;19918;-74
2024/02/06 02:19:53;;;;;;;;;;;8.20;99.90;;;;;;4977161;28;19948;-73
2024/02/06 02:22:19;;;;;;;;;;;8.20;99.90;;;;;;4961360;28;19921;-73
2024/02/06 02:24:44;;;;;;;;;;;8.20;99.90;;;;;;4973593;28;20398;-74
2024/02/06 02:27:10;;;;;;;;;;;8.30;99.90;;;;;;4958643;28;19922;-74
2024/02/06 02:29:36;;;;;;;;;;;8.30;99.90;;;;;;4971334;28;20259;-74
2024/02/06 02:32:01;;;;;;;;;;;8.30;99.90;;;;;;4977122;28;19926;-73
2024/02/06 02:34:27;;;;;;;;;;;8.30;99.90;;;;;;4965389;28;19974;-74
2024/02/06 02:36:53;;;;;;;;;;;8.30;99.90;;;;;;4960716;28;19918;-74
2024/02/06 02:39:19;;;;;;;;;;;8.30;99.90;;;;;;4976650;28;19933;-74
2024/02/06 02:41:44;;;;;;;;;;;8.40;99.90;;;;;;4960680;28;19925;-74
2024/02/06 02:44:10;;;;;;;;;;;8.40;99.90;;;;;;4960186;28;19914;-75
2024/02/06 02:46:35;;;;;;;;;;;8.40;99.90;;;;;;4978834;28;20043;-74
2024/02/06 02:49:01;;;;;;;;;;;8.40;99.90;;;;;;4974550;28;19922;-74
2024/02/06 02:51:27;;;;;;;;;;;8.40;99.90;;;;;;4992925;28;19918;-75
2024/02/06 02:53:53;;;;;;;;;;;8.40;99.90;;;;;;4977321;28;20338;-74
2024/02/06 02:56:19;;;;;;;;;;;8.40;99.90;;;;;;4976535;28;19918;-75
2024/02/06 02:58:46;;;;;;;;;;;8.40;99.90;;;;;;4976267;28;19918;-75
2024/02/06 03:01:11;;;;;;;;;;;8.40;99.90;;;;;;4974953;28;20012;-74
2024/02/06 03:03:37;;;;;;;;;;;8.40;99.90;;;;;;4957314;29;20013;-75
2024/02/06 03:06:03;;;;;;;;;;;8.50;99.90;;;;;;4970513;28;20382;-74
2024/02/06 03:08:29;;;;;;;;;;;8.50;99.90;;;;;;4976900;28;19926;-74
2024/02/06 03:10:54;;;;;;;;;;;8.50;99.90;;;;;;4976807;28;19972;-74
2024/02/06 03:13:21;;;;;;;;;;;8.50;99.90;;;;;;4976043;28;19922;-74
2024/02/06 03:15:47;;;;;;;;;;;8.60;99.90;;;;;;4958934;28;19918;-74
2024/02/06 03:18:13;;;;;;;;;;;8.60;99.90;;;;;;4979658;28;19918;-73
2024/02/06 03:20:42;;;;;;;;;;;8.60;99.90;;;;;;4976240;28;19949;-75
2024/02/06 03:23:08;;;;;;;;;;;8.60;99.90;;;;;;4960010;28;19987;-74
2024/02/06 03:25:33;;;;;;;;;;;8.70;99.90;;;;;;4947122;28;20350;-74
2024/02/06 03:28:03;;;;;;;;;;;8.70;99.90;;;;;;4955376;29;19981;-74
2024/02/06 03:30:32;;;;;;;;;;;8.70;99.90;;;;;;4952102;28;20357;-74
2024/02/06 03:33:00;;;;;;;;;;;8.80;99.90;;;;;;4976026;28;19925;-78
2024/02/06 03:35:26;;;;;;;;;;;8.80;99.90;;;;;;4976915;28;19918;-79
2024/02/06 03:37:51;;;;;;;;;;;8.80;99.90;;;;;;4968105;28;20247;-79
2024/02/06 03:40:17;;;;;;;;;;;8.80;99.90;;;;;;4957973;28;19972;-80
2024/02/06 03:42:43;;;;;;;;;;;8.80;99.90;;;;;;4948586;28;20286;-78
2024/02/06 03:45:08;;;;;;;;;;;8.80;99.90;;;;;;4960149;28;20399;-79
2024/02/06 03:47:34;;;;;;;;;;;8.80;99.90;;;;;;4951490;28;19929;-79
2024/02/06 03:50:00;;;;;;;;;;;8.80;99.90;;;;;;4974625;28;20243;-78
2024/02/06 03:52:25;;;;;;;;;;;8.80;99.90;;;;;;4965257;28;19922;-78
2024/02/06 03:54:51;;;;;;;;;;;8.80;99.90;;;;;;4950714;28;19918;-79
2024/02/06 03:57:17;;;;;;;;;;;8.80;99.90;;;;;;4949655;28;19914;-77
2024/02/06 03:59:43;;;;;;;;;;;8.80;99.90;;;;;;4958280;28;19915;-79
2024/02/06 04:02:08;;;;;;;;;;;8.80;99.90;;;;;;4959878;28;19922;-78
2024/02/06 04:04:34;;;;;;;;;;;8.90;99.90;;;;;;4975375;28;19925;-78
2024/02/06 04:07:00;;;;;;;;;;;8.90;99.90;;;;;;4991771;28;19914;-78
2024/02/06 04:09:25;;;;;;;;;;;8.90;99.90;;;;;;4971848;28;19923;-78
2024/02/06 04:11:51;;;;;;;;;;;8.90;99.90;;;;;;4972141;28;19918;-79
2024/02/06 04:14:17;;;;;;;;;;;8.90;99.90;;;;;;4959864;28;19918;-78
2024/02/06 04:16:42;;;;;;;;;;;8.90;99.90;;;;;;4976356;28;19925;-77
2024/02/06 04:19:08;;;;;;;;;;;8.80;99.90;;;;;;4975649;28;20325;-79
2024/02/06 04:21:33;;;;;;;;;;;8.90;99.90;;;;;;4975725;28;19918;-78
2024/02/06 04:23:59;;;;;;;;;;;8.80;99.90;;;;;;4956362;28;19973;-79
2024/02/06 04:26:25;;;;;;;;;;;8.90;99.90;;;;;;4976280;28;19914;-78
2024/02/06 04:28:50;;;;;;;;;;;8.90;99.90;;;;;;4975396;28;19918;-78
2024/02/06 04:31:16;;;;;;;;;;;8.90;99.90;;;;;;4941956;28;19922;-79
2024/02/06 04:33:42;;;;;;;;;;;8.90;99.90;;;;;;4975005;28;19914;-80
2024/02/06 04:36:07;;;;;;;;;;;8.90;99.90;;;;;;4991528;28;19929;-78
2024/02/06 04:38:33;;;;;;;;;;;8.90;99.90;;;;;;4959149;28;19922;-78
2024/02/06 04:40:59;;;;;;;;;;;8.90;99.90;;;;;;4974557;28;20020;-79
2024/02/06 04:43:24;;;;;;;;;;;8.90;99.90;;;;;;4974821;28;19918;-79
2024/02/06 04:45:50;;;;;;;;;;;8.90;99.90;;;;;;4950233;28;19920;-78
2024/02/06 04:48:16;;;;;;;;;;;8.90;99.90;;;;;;4967705;28;19932;-79
2024/02/06 04:50:41;;;;;;;;;;;8.90;99.90;;;;;;4975618;28;20042;-78
2024/02/06 04:53:07;;;;;;;;;;;8.90;99.90;;;;;;4974930;28;19960;-79
2024/02/06 04:55:32;;;;;;;;;;;8.90;99.90;;;;;;4991157;28;19921;-78
2024/02/06 04:57:59;;;;;;;;;;;8.90;99.90;;;;;;4979211;28;20036;-78
2024/02/06 05:00:25;;;;;;;;;;;8.90;99.90;;;;;;4990308;28;19917;-78
2024/02/06 05:02:50;;;;;;;;;;;8.90;99.90;;;;;;5008246;28;20607;-78
2024/02/06 05:05:16;;;;;;;;;;;9.00;99.90;;;;;;4974786;28;19914;-79
2024/02/06 05:07:42;;;;;;;;;;;9.00;99.90;;;;;;4975450;28;20246;-78
2024/02/06 05:10:10;;;;;;;;;;;9.00;99.90;;;;;;4961593;28;19915;-78
2024/02/06 05:12:36;;;;;;;;;;;9.00;99.90;;;;;;4975650;28;19918;-78
2024/02/06 05:15:02;;;;;;;;;;;9.00;99.90;;;;;;4957391;28;19977;-78
2024/02/06 05:17:27;;;;;;;;;;;9.00;99.90;;;;;;4955510;29;20509;-78
2024/02/06 05:19:53;;;;;;;;;;;9.00;99.90;;;;;;4971924;28;19969;-78
2024/02/06 05:22:19;;;;;;;;;;;9.00;99.90;;;;;;4957365;28;19957;-79
2024/02/06 05:24:45;;;;;;;;;;;9.00;99.90;;;;;;4975190;28;19921;-78
2024/02/06 05:27:11;;;;;;;;;;;9.00;99.90;;;;;;4974975;28;19914;-78
2024/02/06 05:29:36;;;;;;;;;;;9.00;99.90;;;;;;4958971;28;20258;-79
2024/02/06 05:32:02;;;;;;;;;;;9.00;99.90;;;;;;4981119;28;19976;-79
2024/02/06 05:34:28;;;;;;;;;;;9.00;99.90;;;;;;4949852;28;19918;-79
2024/02/06 05:36:54;;;;;;;;;;;9.00;99.90;;;;;;4981915;28;19914;-78
2024/02/06 05:39:19;;;;;;;;;;;9.00;99.90;;;;;;4981520;28;19976;-78
2024/02/06 05:41:45;;;;;;;;;;;9.00;99.90;;;;;;4996803;28;20001;-79
2024/02/06 05:44:11;;;;;;;;;;;9.00;99.90;;;;;;4996831;28;19922;-79
2024/02/06 05:46:36;;;;;;;;;;;9.00;99.90;;;;;;4980794;28;19973;-79
2024/02/06 05:49:02;;;;;;;;;;;9.00;99.90;;;;;;4980854;28;19933;-79
2024/02/06 05:51:28;;;;;;;;;;;9.00;99.90;;;;;;4981134;28;20146;-79
2024/02/06 05:53:54;;;;;;;;;;;9.00;99.90;;;;;;4962816;28;19964;-78
2024/02/06 05:56:19;;;;;;;;;;;9.00;99.90;;;;;;4961691;28;19923;-79
2024/02/06 05:58:45;;;;;;;;;;;9.00;99.90;;;;;;4973993;28;19924;-79
2024/02/06 06:01:11;;;;;;;;;;;9.00;99.90;;;;;;4983757;28;19914;-79
2024/02/06 06:03:36;;;;;;;;;;;9.00;99.90;;;;;;4981906;28;19953;-79
2024/02/06 06:06:02;;;;;;;;;;;9.00;99.90;;;;;;4965618;28;19918;-80
2024/02/06 06:08:28;;;;;;;;;;;9.00;99.90;;;;;;4981470;28;19918;-79
2024/02/06 06:10:54;;;;;;;;;;;9.00;99.90;;;;;;4980641;28;19949;-80
2024/02/06 06:13:19;;;;;;;;;;;9.00;99.90;;;;;;4997745;28;19977;-78
2024/02/06 06:15:46;;;;;;;;;;;9.10;99.90;;;;;;4959610;28;19926;-79
2024/02/06 06:18:11;;;;;;;;;;;9.10;99.90;;;;;;4978008;28;19929;-78
2024/02/06 06:20:37;;;;;;;;;;;9.10;99.90;;;;;;4977752;28;19918;-79
2024/02/06 06:23:03;;;;;;;;;;;9.10;99.90;;;;;;4962091;29;20263;-79
2024/02/06 06:25:30;;;;;;;;;;;9.10;99.90;;;;;;4968529;28;19918;-78
2024/02/06 06:27:55;;;;;;;;;;;9.10;99.90;;;;;;4961661;28;19929;-78
2024/02/06 06:30:23;;;;;;;;;;;9.10;99.90;;;;;;4955000;28;19918;-79
2024/02/06 06:32:48;;;;;;;;;;;9.20;99.90;;;;;;4964563;28;19918;-79
2024/02/06 06:35:14;;;;;;;;;;;9.20;99.90;;;;;;4983604;28;20354;-79
2024/02/06 06:37:40;;;;;;;;;;;9.20;99.90;;;;;;5000358;28;20219;-79
2024/02/06 06:40:07;;;;;;;;;;;9.20;99.90;;;;;;4984544;28;20008;-79
2024/02/06 06:42:33;;;;;;;;;;;9.20;99.90;;;;;;4977024;28;19929;-78
2024/02/06 06:44:59;;;;;;;;;;;9.30;99.90;;;;;;4960577;28;19918;-80
2024/02/06 06:47:25;;;;;;;;;;;9.30;99.90;;;;;;4977975;28;19928;-78
2024/02/06 06:49:50;;;;;;;;;;;9.30;99.90;;;;;;4978560;28;20005;-78
2024/02/06 06:52:16;;;;;;;;;;;9.30;99.90;;;;;;4978090;28;19914;-79
2024/02/06 06:54:42;;;;;;;;;;;9.30;99.90;;;;;;4977477;28;19926;-79
2024/02/06 06:57:08;;;;;;;;;;;9.30;99.90;;;;;;4977850;28;19918;-79
2024/02/06 06:59:33;;;;;;;;;;;9.40;99.90;;;;;;4955751;28;19914;-78
2024/02/06 07:01:59;;;;;;;;;;;9.40;99.90;;;;;;4978049;28;19914;-78
2024/02/06 07:04:28;;;;;;;;;;;9.40;99.90;;;;;;4977359;28;20234;-79
2024/02/06 07:06:54;;;;;;;;;;;9.40;99.90;;;;;;4994055;28;20250;-78
2024/02/06 07:09:24;;;;;;;;;;;9.40;99.90;;;;;;4977893;28;19918;-78
2024/02/06 07:11:49;;;;;;;;;;;9.40;99.90;;;;;;4977560;28;19990;-79
2024/02/06 07:14:15;;;;;;;;;;;9.40;99.90;;;;;;4981129;28;19914;-78
2024/02/06 07:16:41;;;;;;;;;;;9.40;99.90;;;;;;4961532;28;19922;-78
2024/02/06 07:19:06;;;;;;;;;;;9.40;99.90;;;;;;4978164;28;19917;-78
2024/02/06 07:21:32;;;;;;;;;;;9.40;99.90;;;;;;4992876;28;19918;-78
2024/02/06 07:23:58;;;;;;;;;;;9.40;99.90;;;;;;4973182;28;19922;-79
2024/02/06 07:26:23;;;;;;;;;;;9.40;99.90;;;;;;4960675;28;20216;-79
2024/02/06 07:28:49;;;;;;;;;;;9.40;99.90;;;;;;4976028;28;19917;-79
2024/02/06 07:31:15;;;;;;;;;;;9.40;99.90;;;;;;4984922;28;19925;-78
2024/02/06 07:33:43;;;;;;;;;;;9.40;99.90;;;;;;4945393;28;19921;-78
2024/02/06 07:36:09;;;;;;;;;;;9.30;99.90;;;;;;4975022;28;20076;-79
2024/02/06 07:38:35;;;;;;;;;;;9.40;99.90;;;;;;4975040;28;19915;-78
2024/02/06 07:41:02;;;;;;;;;;;9.40;99.90;;;;;;4960366;28;19925;-78
2024/02/06 07:43:28;;;;;;;;;;;9.40;99.90;;;;;;4973418;28;19926;-78
2024/02/06 07:45:54;;;;;;;;;;;9.40;99.90;;;;;;4965089;28;20002;-78
2024/02/06 07:48:20;;;;;;;;;;;9.40;99.90;;;;;;4976091;28;20365;-79
2024/02/06 07:50:47;;;;;;;;;;;9.40;99.90;;;;;;4976895;28;19918;-79
2024/02/06 07:53:13;;;;;;;;;;;9.40;99.90;;;;;;4976112;28;19914;-78
2024/02/06 07:55:39;;;;;;;;;;;9.40;99.90;;;;;;4975507;28;19932;-78
2024/02/06 07:58:05;;;;;;;;;;;9.50;99.90;;;;;;4970862;28;20034;-78
2024/02/06 08:00:31;;;;;;;;;;;9.50;99.90;;;;;;4977727;28;19929;-78
2024/02/06 08:02:56;;;;;;;;;;;9.50;99.90;;;;;;4959874;28;19980;-78
2024/02/06 08:05:23;;;;;;;;;;;9.60;99.90;;;;;;4958779;28;19989;-78
2024/02/06 08:07:49;;;;;;;;;;;9.50;99.90;;;;;;4990281;28;19989;-78
2024/02/06 08:10:15;;;;;;;;;;;9.50;99.90;;;;;;4975358;28;19922;-79
2024/02/06 08:12:41;;;;;;;;;;;9.60;99.90;;;;;;4990916;28;19914;-79
2024/02/06 08:15:08;;;;;;;;;;;9.60;99.90;;;;;;4943005;28;19921;-78
2024/02/06 08:17:36;;;;;;;;;;;9.60;99.90;;;;;;4975648;28;19914;-78
2024/02/06 08:20:02;;;;;;;;;;;9.60;99.90;;;;;;4952321;28;19915;-79
2024/02/06 08:22:30;;;;;;;;;;;9.60;99.90;;;;;;4940662;29;20327;-79
2024/02/06 08:24:56;;;;;;;;;;;9.60;99.90;;;;;;4959106;28;19921;-78
2024/02/06 08:27:21;;;;;;;;;;;9.60;99.90;;;;;;4991725;28;19918;-78
2024/02/06 08:29:47;;;;;;;;;;;9.60;99.90;;;;;;4975629;28;19929;-78
2024/02/06 08:32:13;;;;;;;;;;;9.70;99.90;;;;;;4955271;28;20263;-78
2024/02/06 08:34:38;;;;;;;;;;;9.70;99.90;;;;;;4963394;28;19918;-79
2024/02/06 08:37:04;;;;;;;;;;;9.70;99.90;;;;;;4974357;28;20235;-78
2024/02/06 08:39:30;;;;;;;;;;;9.70;99.90;;;;;;4962829;28;20352;-78
2024/02/06 08:41:55;;;;;;;;;;;9.70;99.90;;;;;;4975573;28;20005;-78
2024/02/06 08:44:21;;;;;;;;;;;9.70;99.90;;;;;;4972385;28;20528;-78
2024/02/06 08:46:47;;;;;;;;;;;9.70;99.90;;;;;;4959922;28;20732;-78
2024/02/06 08:49:13;;;;;;;;;;;9.70;99.90;;;;;;4991989;28;19918;-78
2024/02/06 08:51:38;;;;;;;;;;;9.70;99.90;;;;;;4960020;28;20352;-78
2024/02/06 08:54:04;;;;;;;;;;;9.80;99.90;;;;;;4982786;28;19929;-79
2024/02/06 08:56:31;;;;;;;;;;;9.80;99.90;;;;;;4956822;29;20595;-78
2024/02/06 08:58:57;;;;;;;;;;;9.80;99.90;;;;;;4962608;28;19922;-78
2024/02/06 09:01:23;;;;;;;;;;;9.80;99.90;;;;;;4971981;28;19977;-79
2024/02/06 09:03:50;;;;;;;;;;;9.80;99.90;;;;;;4941730;28;20583;-79
2024/02/06 09:06:16;;;;;;;;;;;9.80;99.90;;;;;;4970746;28;19918;-78
2024/02/06 09:08:41;;;;;;;;;;;9.80;99.90;;;;;;4975431;28;19981;-79
2024/02/06 09:11:07;;;;;;;;;;;9.90;99.90;;;;;;4959324;28;19925;-78
2024/02/06 09:13:34;;;;;;;;;;;9.80;99.90;;;;;;4959407;28;19914;-78
2024/02/06 09:16:01;;;;;;;;;;;9.90;99.90;;;;;;4959472;28;19918;-78
2024/02/06 09:18:26;;;;;;;;;;;9.90;99.90;;;;;;4975630;28;19914;-78
2024/02/06 09:20:52;;;;;;;;;;;9.90;99.90;;;;;;4991605;28;19918;-78
2024/02/06 09:23:18;;;;;;;;;;;9.90;99.90;;;;;;4973957;28;19918;-78
2024/02/06 09:25:45;;;;;;;;;;;9.90;99.90;;;;;;4980718;28;19915;-78
2024/02/06 09:28:11;;;;;;;;;;;10.00;99.90;;;;;;4955887;29;20323;-78
2024/02/06 09:30:39;;;;;;;;;;;10.00;99.90;;;;;;4968848;28;19925;-78
2024/02/06 09:33:05;;;;;;;;;;;10.00;99.90;;;;;;4971448;28;19925;-78
2024/02/06 09:35:31;;;;;;;;;;;10.00;99.90;;;;;;4955674;28;19925;-79
2024/02/06 09:37:57;;;;;;;;;;;10.00;99.90;;;;;;4969209;28;19936;-78
2024/02/06 09:40:23;;;;;;;;;;;10.00;99.90;;;;;;4968051;28;19918;-78
2024/02/06 09:42:49;;;;;;;;;;;10.10;99.90;;;;;;4971049;28;20330;-78
2024/02/06 09:45:15;;;;;;;;;;;10.10;99.90;;;;;;4967105;28;19958;-80
2024/02/06 09:47:41;;;;;;;;;;;10.10;99.90;;;;;;4951091;28;19920;-79
2024/02/06 09:50:08;;;;;;;;;;;10.10;99.90;;;;;;4973717;28;19919;-79
2024/02/06 09:52:34;;;;;;;;;;;10.10;99.90;;;;;;4964853;28;20009;-78
2024/02/06 09:55:00;;;;;;;;;;;10.20;99.90;;;;;;4937891;29;20004;-79
2024/02/06 09:57:25;;;;;;;;;;;10.10;99.90;;;;;;4938812;29;20001;-78
2024/02/06 09:59:52;;;;;;;;;;;10.20;99.90;;;;;;4974483;28;20009;-78
2024/02/06 10:02:19;;;;;;;;;;;10.10;99.90;;;;;;4974352;28;19929;-78
2024/02/06 10:04:44;;;;;;;;;;;10.10;99.90;;;;;;4989924;28;20001;-78
2024/02/06 10:07:11;;;;;;;;;;;10.10;99.90;;;;;;4989715;28;20005;-79
2024/02/06 10:09:37;;;;;;;;;;;10.10;99.90;;;;;;4973669;28;19922;-78
2024/02/06 10:12:02;;;;;;;;;;;10.10;99.90;;;;;;4973999;28;19929;-77
2024/02/06 10:14:28;;;;;;;;;;;10.10;99.90;;;;;;4948229;29;20009;-78
2024/02/06 10:16:54;;;;;;;;;;;10.10;99.90;;;;;;4960415;28;20331;-78
2024/02/06 10:19:29;;;;;;;;;;;10.10;99.90;;;;;;4971899;28;19917;-78
2024/02/06 10:21:55;;;;;;;;;;;10.10;99.90;;;;;;4941114;29;20013;-78
2024/02/06 10:24:20;;;;;;;;;;;10.10;99.90;;;;;;4980986;28;20005;-78
2024/02/06 10:26:47;;;;;;;;;;;10.20;99.90;;;;;;4977653;28;19927;-77
2024/02/06 10:29:17;;;;;;;;;;;10.20;99.90;;;;;;4981910;28;19918;-78
2024/02/06 10:31:43;;;;;;;;;;;10.20;99.90;;;;;;4961571;28;19981;-78
2024/02/06 10:34:09;;;;;;;;;;;10.20;99.90;;;;;;4966618;28;19918;-77
2024/02/06 10:36:35;;;;;;;;;;;10.20;99.90;;;;;;4977192;28;19925;-77
2024/02/06 10:39:02;;;;;;;;;;;10.20;99.90;;;;;;4993087;28;20554;-78
2024/02/06 10:41:28;;;;;;;;;;;10.20;99.90;;;;;;4960193;28;19919;-78
2024/02/06 10:43:54;;;;;;;;;;;10.20;99.90;;;;;;4989529;28;19976;-77
2024/02/06 10:46:22;;;;;;;;;;;10.20;99.90;;;;;;4976717;28;20401;-78
2024/02/06 10:48:50;;;;;;;;;;;10.30;99.90;;;;;;4975464;28;19918;-78
2024/02/06 10:51:23;;;;;;;;;;;10.30;99.90;;;;;;4958066;28;19923;-79
2024/02/06 10:53:48;;;;;;;;;;;10.30;99.90;;;;;;4958701;28;20068;-78
2024/02/06 10:56:14;;;;;;;;;;;10.40;99.90;;;;;;4952629;28;20009;-78
2024/02/06 10:58:42;;;;;;;;;;;10.40;99.90;;;;;;4987978;28;19966;-78
2024/02/06 11:01:09;;;;;;;;;;;10.40;99.90;;;;;;4971075;28;19922;-78
2024/02/06 11:03:56;;;;;;;;;;;10.40;99.90;;;;;;4966260;28;19914;-78
2024/02/06 11:06:27;;;;;;;;;;;10.40;99.90;;;;;;4992488;28;19925;-79
2024/02/06 11:08:56;;;;;;;;;;;10.50;99.90;;;;;;4973001;28;19925;-77
2024/02/06 11:11:22;;;;;;;;;;;10.50;99.90;;;;;;4973998;28;19918;-77
2024/02/06 11:13:50;;;;;;;;;;;10.50;99.90;;;;;;4958820;28;19952;-78
2024/02/06 11:16:18;;;;;;;;;;;10.50;99.90;;;;;;4976229;28;20250;-79
2024/02/06 11:18:44;;;;;;;;;;;10.60;99.90;;;;;;4970478;28;19922;-79
2024/02/06 11:21:10;;;;;;;;;;;10.60;99.90;;;;;;4965931;28;19918;-77
2024/02/06 11:23:36;;;;;;;;;;;10.60;99.90;;;;;;4958086;28;20065;-78
2024/02/06 11:26:02;;;;;;;;;;;10.60;99.90;;;;;;4974793;28;19976;-78
2024/02/06 11:28:29;;;;;;;;;;;10.60;99.90;;;;;;4960511;28;19928;-78
2024/02/06 11:30:59;;;;;;;;;;;10.60;99.90;;;;;;4961555;28;19926;-78
2024/02/06 11:33:31;;;;;;;;;;;10.60;99.90;;;;;;4977166;28;20010;-78
2024/02/06 11:36:26;;;;;;;;;;;10.60;99.90;;;;;;4972566;28;19913;-78
2024/02/06 11:38:53;;;;;;;;;;;10.60;99.90;;;;;;5008345;28;19976;-78
2024/02/06 11:41:18;;;;;;;;;;;10.50;99.90;;;;;;4991325;28;20068;-78
2024/02/06 11:43:46;;;;;;;;;;;10.50;99.90;;;;;;4992424;28;20029;-78
2024/02/06 11:46:14;;;;;;;;;;;10.50;99.90;;;;;;4976517;28;19925;-77
2024/02/06 11:48:43;;;;;;;;;;;10.50;99.90;;;;;;4976335;28;19918;-78
2024/02/06 11:51:08;;;;;;;;;;;10.50;99.90;;;;;;4975187;28;20000;-77
2024/02/06 11:53:34;;;;;;;;;;;10.50;99.90;;;;;;4970608;28;20620;-77
2024/02/06 11:56:02;;;;;;;;;;;10.50;99.90;;;;;;4963448;28;19996;-78
2024/02/06 11:58:28;;;;;;;;;;;10.40;99.90;;;;;;4991981;28;19914;-77
2024/02/06 12:00:55;;;;;;;;;;;10.40;99.90;;;;;;4967918;28;19918;-77
2024/02/06 12:03:23;;;;;;;;;;;10.30;99.90;;;;;;4952648;28;19918;-77
2024/02/06 12:05:49;;;;;;;;;;;10.40;99.90;;;;;;4960768;28;19949;-79
2024/02/06 12:08:16;;;;;;;;;;;10.40;99.90;;;;;;4992288;28;20278;-77
2024/02/06 12:10:42;;;;;;;;;;;10.40;99.90;;;;;;4975042;28;19964;-78
2024/02/06 12:13:09;;;;;;;;;;;10.40;99.90;;;;;;4958358;28;19922;-77
2024/02/06 12:15:35;;;;;;;;;;;10.40;99.90;;;;;;4981715;28;19919;-78
2024/02/06 12:18:03;;;;;;;;;;;10.40;99.90;;;;;;4956447;29;19953;-78
2024/02/06 12:20:29;;;;;;;;;;;10.40;99.90;;;;;;4969352;28;19957;-78
2024/02/06 12:22:58;;;;;;;;;;;10.40;99.90;;;;;;4955990;28;20379;-77
2024/02/06 12:25:25;;;;;;;;;;;10.40;99.90;;;;;;4975641;28;19953;-77
2024/02/06 12:28:00;;;;;;;;;;;10.40;99.90;;;;;;4987624;28;19953;-78
2024/02/06 12:30:29;;;;;;;;;;;10.40;99.90;;;;;;4982454;28;20264;-78
2024/02/06 12:32:55;;;;;;;;;;;10.40;99.90;;;;;;4969384;28;20300;-78
2024/02/06 12:35:21;;;;;;;;;;;10.40;99.90;;;;;;4959633;28;19918;-78
2024/02/06 12:37:47;;;;;;;;;;;10.40;99.90;;;;;;4974362;28;20405;-78
2024/02/06 12:40:13;;;;;;;;;;;10.40;99.90;;;;;;4975705;28;19914;-78
2024/02/06 12:42:38;;;;;;;;;;;10.40;99.90;;;;;;4976043;28;19945;-78
2024/02/06 12:45:04;;;;;;;;;;;10.40;99.90;;;;;;4959846;28;19914;-77
2024/02/06 12:47:30;;;;;;;;;;;10.40;99.90;;;;;;4975789;28;19922;-77
2024/02/06 12:49:55;;;;;;;;;;;10.50;99.90;;;;;;4975390;28;19922;-78
2024/02/06 12:52:22;;;;;;;;;;;10.50;99.90;;;;;;4970038;28;20005;-77
2024/02/06 12:54:47;;;;;;;;;;;10.50;99.90;;;;;;4971359;28;19925;-78
2024/02/06 12:57:16;;;;;;;;;;;10.50;99.90;;;;;;4978729;28;20246;-78
2024/02/06 12:59:42;;;;;;;;;;;10.60;99.90;;;;;;4977485;28;20000;-77
2024/02/06 13:02:07;;;;;;;;;;;10.60;99.90;;;;;;4971440;28;20010;-77
2024/02/06 13:04:33;;;;;;;;;;;10.70;99.90;;;;;;4971456;28;19977;-78
2024/02/06 13:06:59;;;;;;;;;;;10.80;99.90;;;;;;4972461;28;19922;-78
2024/02/06 13:09:25;;;;;;;;;;;10.80;99.90;;;;;;4974627;28;19925;-78
2024/02/06 13:11:50;;;;;;;;;;;10.80;99.90;;;;;;4974294;28;19924;-77
2024/02/06 13:14:16;;;;;;;;;;;10.90;99.90;;;;;;4974583;28;20246;-77
2024/02/06 13:16:43;;;;;;;;;;;10.90;99.90;;;;;;4974583;28;20339;-78
2024/02/06 13:19:08;;;;;;;;;;;10.90;99.90;;;;;;4975018;28;19949;-78
2024/02/06 13:21:39;;;;;;;;;;;10.90;99.90;;;;;;4972473;28;19956;-78
2024/02/06 13:24:05;;;;;;;;;;;11.00;99.90;;;;;;4990496;28;20001;-77
2024/02/06 13:26:31;;;;;;;;;;;11.00;99.90;;;;;;4991042;28;19914;-77
2024/02/06 13:28:57;;;;;;;;;;;11.00;99.90;;;;;;4993565;28;19986;-77
2024/02/06 13:31:23;;;;;;;;;;;11.00;99.90;;;;;;4946995;28;19937;-77
2024/02/06 13:33:48;;;;;;;;;;;11.00;99.90;;;;;;4960993;28;20009;-78
2024/02/06 13:36:17;;;;;;;;;;;11.00;99.90;;;;;;4968746;28;20299;-78
2024/02/06 13:38:43;;;;;;;;;;;11.00;99.90;;;;;;4958656;28;19981;-77
2024/02/06 13:41:09;;;;;;;;;;;11.00;99.90;;;;;;4955396;28;19922;-78
2024/02/06 13:43:35;;;;;;;;;;;11.00;99.90;;;;;;4970594;28;19918;-78
2024/02/06 13:46:00;;;;;;;;;;;11.00;99.90;;;;;;4977214;28;19925;-80
2024/02/06 13:48:26;;;;;;;;;;;11.00;99.90;;;;;;4968004;28;19918;-77
2024/02/06 13:50:54;;;;;;;;;;;11.00;99.90;;;;;;4980270;28;20306;-78
2024/02/06 13:53:19;;;;;;;;;;;11.00;99.90;;;;;;4975762;28;20004;-78
2024/02/06 13:55:45;;;;;;;;;;;11.00;99.90;;;;;;4994244;28;20013;-78
2024/02/06 13:58:11;;;;;;;;;;;11.00;99.90;;;;;;4977694;28;19914;-77
2024/02/06 14:00:37;;;;;;;;;;;11.00;99.90;;;;;;4987707;28;19914;-78
2024/02/06 14:03:03;;;;;;;;;;;11.00;99.90;;;;;;4979556;28;19932;-77
2024/02/06 14:05:29;;;;;;;;;;;11.00;99.90;;;;;;4977213;28;20231;-78
2024/02/06 14:07:55;;;;;;;;;;;11.10;99.90;;;;;;4976821;28;20319;-78
2024/02/06 14:10:20;;;;;;;;;;;11.10;99.90;;;;;;4968907;28;19980;-77
2024/02/06 14:12:46;;;;;;;;;;;11.10;99.90;;;;;;4968127;28;20536;-77
2024/02/06 14:15:12;;;;;;;;;;;11.20;99.90;;;;;;4974578;28;20013;-77
2024/02/06 14:17:38;;;;;;;;;;;11.10;99.90;;;;;;4960551;28;19925;-78
2024/02/06 14:20:13;;;;;;;;;;;11.10;99.90;;;;;;4979082;28;19936;-77